Time;durP1;ratioP1;P1;durP2;ratioP2;P2;SDS_P1;SDS_P2;PMS_P1;PMS_P2;Temp;Humidity;BMP_temperature;BMP_pressure;BME280_temperature;BME280_humidity;BME280_pressure;Samples;Min_cycle;Max_cycle;Signal;HPM_P1;HPM_P2
2023/02/23 00:01:56;;;;;;;76.82;27.83;;;7.30;99.90;;;;;;4953052;28;20027;-73
2023/02/23 00:04:23;;;;;;;68.00;26.65;;;7.30;99.90;;;;;;4952360;28;21095;-69
2023/02/23 00:06:52;;;;;;;69.90;26.83;;;7.30;99.90;;;;;;4953288;28;20961;-70
2023/02/23 00:09:33;;;;;;;65.22;26.35;;;7.30;99.90;;;;;;4952715;28;21168;-74
2023/02/23 00:12:06;;;;;;;71.35;27.67;;;7.40;99.90;;;;;;4954796;28;20025;-73
2023/02/23 00:14:32;;;;;;;69.40;27.92;;;7.40;99.90;;;;;;4934791;28;20112;-72
2023/02/23 00:16:58;;;;;;;71.63;27.65;;;7.30;99.90;;;;;;4935690;28;20021;-71
2023/02/23 00:19:24;;;;;;;75.03;26.00;;;7.40;99.90;;;;;;4953536;28;21503;-68
2023/02/23 00:21:51;;;;;;;68.30;27.00;;;7.40;99.90;;;;;;4952697;28;20039;-71
2023/02/23 00:24:18;;;;;;;72.40;27.15;;;7.40;99.90;;;;;;4952305;28;20774;-67
2023/02/23 00:26:46;;;;;;;69.40;27.13;;;7.40;99.90;;;;;;4934770;28;20068;-67
2023/02/23 00:29:18;;;;;;;67.63;25.77;;;7.40;99.90;;;;;;4950979;28;20027;-74
2023/02/23 00:31:44;;;;;;;68.82;27.52;;;7.40;99.90;;;;;;4953639;28;20086;-71
2023/02/23 00:34:19;;;;;;;77.20;27.40;;;7.40;99.90;;;;;;4949939;28;20040;-73
2023/02/23 00:36:48;;;;;;;74.60;27.52;;;7.40;99.90;;;;;;4930746;28;20037;-69
2023/02/23 00:39:27;;;;;;;68.95;26.13;;;7.40;99.90;;;;;;4952869;28;21201;-69
2023/02/23 00:41:54;;;;;;;71.18;27.15;;;7.40;99.90;;;;;;4952171;28;20029;-68
2023/02/23 00:44:22;;;;;;;68.15;26.63;;;7.40;99.90;;;;;;4951103;28;20430;-73
2023/02/23 00:46:50;;;;;;;72.18;26.98;;;7.40;99.90;;;;;;4953854;28;20526;-68
2023/02/23 00:49:17;;;;;;;77.57;28.10;;;7.40;99.90;;;;;;4951097;28;20758;-72
2023/02/23 00:51:43;;;;;;;68.57;27.38;;;7.40;99.90;;;;;;4950463;28;20036;-71
2023/02/23 00:54:12;;;;;;;69.93;28.93;;;7.40;99.90;;;;;;4954854;28;20069;-69
2023/02/23 00:56:38;;;;;;;69.03;27.35;;;7.40;99.90;;;;;;4957294;28;20623;-74
2023/02/23 00:59:04;;;;;;;75.18;28.85;;;7.50;99.90;;;;;;4951876;28;20276;-72
2023/02/23 01:01:30;;;;;;;70.30;27.17;;;7.40;99.90;;;;;;4935002;28;20033;-68
2023/02/23 01:03:55;;;;;;;67.30;26.47;;;7.40;99.90;;;;;;4952913;28;20807;-68
2023/02/23 01:06:22;;;;;;;71.07;27.30;;;7.40;99.90;;;;;;4952455;28;20039;-72
2023/02/23 01:08:49;;;;;;;68.88;26.60;;;7.40;99.90;;;;;;4954881;28;20021;-73
2023/02/23 01:11:20;;;;;;;68.70;27.40;;;7.40;99.90;;;;;;4954116;28;20029;-68
2023/02/23 01:13:46;;;;;;;75.80;27.73;;;7.40;99.90;;;;;;4936658;28;20016;-69
2023/02/23 01:16:16;;;;;;;69.35;27.73;;;7.40;99.90;;;;;;4955128;28;20029;-68
2023/02/23 01:18:46;;;;;;;68.22;26.25;;;7.40;99.90;;;;;;4953841;28;20025;-73
2023/02/23 01:21:23;;;;;;;73.50;27.33;;;7.40;99.90;;;;;;4951071;28;20017;-69
2023/02/23 01:23:50;;;;;;;72.20;28.73;;;7.40;99.90;;;;;;4951729;28;20414;-70
2023/02/23 01:26:18;;;;;;;76.15;28.92;;;7.40;99.90;;;;;;4954912;28;20049;-73
2023/02/23 01:28:47;;;;;;;77.65;28.85;;;7.40;99.90;;;;;;4951118;28;20032;-73
2023/02/23 01:31:14;;;;;;;76.70;27.90;;;7.40;99.90;;;;;;4951779;28;20031;-69
2023/02/23 01:33:40;;;;;;;;;;;7.40;99.90;;;;;;4937268;28;20025;-73
2023/02/23 01:36:06;;;;;;;67.55;26.52;;;7.30;99.90;;;;;;4933349;28;19975;-69
2023/02/23 01:38:32;;;;;;;77.47;27.67;;;7.40;99.90;;;;;;4951895;28;20029;-73
2023/02/23 01:40:58;;;;;;;72.77;28.57;;;7.40;99.90;;;;;;4937577;28;20564;-73
2023/02/23 01:43:26;;;;;;;79.50;28.00;;;7.40;99.90;;;;;;4933858;28;20029;-73
2023/02/23 01:45:56;;;;;;;72.40;27.95;;;7.40;99.90;;;;;;4952737;28;20036;-72
2023/02/23 01:48:36;;;;;;;73.47;27.55;;;7.40;99.90;;;;;;4952191;28;20123;-71
2023/02/23 01:51:12;;;;;;;80.85;28.40;;;7.40;99.90;;;;;;4954044;28;20032;-73
2023/02/23 01:53:42;;;;;;;78.63;29.17;;;7.30;99.90;;;;;;4951020;28;20662;-69
2023/02/23 01:56:15;;;;;;;78.65;27.98;;;7.40;99.90;;;;;;4918551;28;21811;-69
2023/02/23 01:58:50;;;;;;;79.07;29.40;;;7.40;99.90;;;;;;4950034;28;20155;-72
2023/02/23 02:01:17;;;;;;;72.73;26.60;;;7.40;99.90;;;;;;4949238;28;20025;-69
2023/02/23 02:04:01;;;;;;;76.97;28.33;;;7.50;99.90;;;;;;4951802;28;20033;-68
2023/02/23 02:06:28;;;;;;;70.97;27.27;;;7.40;99.90;;;;;;4949399;28;20029;-73
2023/02/23 02:08:58;;;;;;;75.63;29.40;;;7.40;99.90;;;;;;4950998;28;20785;-74
2023/02/23 02:11:29;;;;;;;75.13;28.80;;;7.40;99.90;;;;;;4932115;28;23290;-68
2023/02/23 02:14:19;;;;;;;77.82;28.60;;;7.40;99.90;;;;;;4952606;28;20904;-68
2023/02/23 02:17:07;;;;;;;81.75;28.98;;;7.40;99.90;;;;;;4951391;28;20082;-69
2023/02/23 02:19:50;;;;;;;73.05;28.92;;;7.30;99.90;;;;;;4950043;28;21513;-73
2023/02/23 02:22:28;;;;;;;84.40;29.70;;;7.30;99.90;;;;;;4933634;28;20020;-71
2023/02/23 02:25:41;;;;;;;69.95;26.63;;;7.30;99.90;;;;;;4953581;28;20762;-73
2023/02/23 02:28:44;;;;;;;67.55;26.98;;;7.30;99.90;;;;;;4950601;28;20057;-68
2023/02/23 02:31:35;;;;;;;70.13;27.83;;;7.30;99.90;;;;;;4948486;28;20082;-69
2023/02/23 02:34:42;;;;;;;67.80;25.08;;;7.20;99.90;;;;;;4946273;28;20044;-68
2023/02/23 02:37:26;;;;;;;80.97;28.85;;;7.20;99.90;;;;;;4948974;28;20781;-73
2023/02/23 02:39:52;;;;;;;67.20;27.30;;;7.20;99.90;;;;;;4950568;28;20029;-73
2023/02/23 02:42:35;;;;;;;68.73;28.33;;;7.10;99.90;;;;;;4948810;28;20032;-70
2023/02/23 02:45:21;;;;;;;74.60;28.50;;;7.10;99.90;;;;;;4948462;28;20065;-69
2023/02/23 02:48:29;;;;;;;75.03;26.92;;;7.10;99.90;;;;;;4949825;28;21330;-69
2023/02/23 02:51:08;;;;;;;71.72;29.02;;;7.10;99.90;;;;;;4947503;28;20036;-73
2023/02/23 02:53:44;;;;;;;80.10;27.90;;;7.10;99.90;;;;;;4950556;28;20048;-68
2023/02/23 02:56:11;;;;;;;75.75;28.40;;;7.10;99.90;;;;;;4947321;28;21642;-69
2023/02/23 02:58:37;;;;;;;80.85;31.52;;;7.10;99.90;;;;;;4950085;28;20031;-72
2023/02/23 04:18:13;;;;;;;86.05;27.92;;;7.10;99.90;;;;;;4956876;28;20612;-73
2023/02/23 04:20:38;;;;;;;76.65;26.42;;;7.10;99.90;;;;;;4937328;28;20029;-70
2023/02/23 04:23:04;;;;;;;83.27;29.37;;;7.10;99.90;;;;;;4955289;28;20025;-72
2023/02/23 04:25:30;;;;;;;66.03;27.80;;;7.10;99.90;;;;;;4938858;28;20446;-74
2023/02/23 04:27:56;;;;;;;76.80;27.83;;;7.10;99.90;;;;;;4955455;28;20180;-68
2023/02/23 04:30:24;;;;;;;66.73;26.30;;;7.10;99.90;;;;;;4955575;28;20025;-69
2023/02/23 04:32:51;;;;;;;67.22;26.23;;;7.00;99.90;;;;;;4953837;28;20029;-73
2023/02/23 04:35:17;;;;;;;76.50;26.17;;;7.10;99.90;;;;;;4937320;28;20025;-72
2023/02/23 04:37:42;;;;;;;73.40;27.33;;;7.10;99.90;;;;;;4953052;28;20060;-69
2023/02/23 04:40:09;;;;;;;68.30;27.10;;;7.10;99.90;;;;;;4955721;28;20070;-69
2023/02/23 04:42:35;;;;;;;74.03;27.30;;;7.10;99.90;;;;;;4955229;28;20945;-69
2023/02/23 04:45:00;;;;;;;80.68;28.98;;;7.10;99.90;;;;;;4956655;28;20041;-68
2023/02/23 04:47:26;;;;;;;70.90;26.33;;;7.10;99.90;;;;;;4923025;28;20051;-69
2023/02/23 04:49:52;;;;;;;73.13;25.73;;;7.10;99.90;;;;;;4956275;28;20509;-73
2023/02/23 04:52:18;;;;;;;76.80;26.38;;;7.10;99.90;;;;;;4921411;28;20131;-69
2023/02/23 04:54:44;;;;;;;69.27;27.47;;;7.10;99.90;;;;;;4955050;28;20028;-69
2023/02/23 04:57:10;;;;;;;79.43;27.47;;;7.10;99.90;;;;;;4938790;28;23786;-73
2023/02/23 04:59:35;;;;;;;71.30;26.80;;;7.10;99.90;;;;;;4954842;28;20039;-72
2023/02/23 05:02:01;;;;;;;64.53;25.77;;;7.10;99.90;;;;;;4953854;28;20032;-69
2023/02/23 05:04:27;;;;;;;81.10;29.53;;;7.10;99.90;;;;;;4953447;28;20036;-71
2023/02/23 05:06:53;;;;;;;73.17;27.10;;;7.10;99.90;;;;;;4953961;28;20429;-72
2023/02/23 05:09:19;;;;;;;75.07;27.87;;;7.10;99.90;;;;;;4954519;28;20074;-73
2023/02/23 05:11:45;;;;;;;81.05;27.67;;;7.10;99.90;;;;;;4936867;28;20085;-68
2023/02/23 05:14:11;;;;;;;67.47;26.60;;;7.10;99.90;;;;;;4955489;28;20785;-74
2023/02/23 05:16:37;;;;;;;72.97;26.93;;;7.10;99.90;;;;;;4934900;28;20689;-73
2023/02/23 05:19:03;;;;;;;62.40;23.58;;;7.10;99.90;;;;;;4954049;28;20297;-69
2023/02/23 05:21:29;;;;;;;64.50;26.00;;;7.10;99.90;;;;;;4955301;28;20305;-73
2023/02/23 05:23:56;;;;;;;70.80;26.53;;;7.10;99.90;;;;;;4950054;28;21735;-68
2023/02/23 05:26:22;;;;;;;63.55;24.17;;;7.10;99.90;;;;;;4937113;28;20408;-68
2023/02/23 05:28:47;;;;;;;72.55;25.83;;;7.10;99.90;;;;;;4954455;28;20029;-69
2023/02/23 05:31:14;;;;;;;65.93;25.50;;;7.10;99.90;;;;;;4935404;28;20032;-68
2023/02/23 05:33:44;;;;;;;68.18;24.80;;;7.10;99.90;;;;;;4954609;28;20017;-71
2023/02/23 05:36:15;;;;;;;61.40;23.38;;;7.10;99.90;;;;;;4952682;28;20031;-68
2023/02/23 05:38:42;;;;;;;65.47;23.85;;;7.10;99.90;;;;;;4954960;28;20025;-68
2023/02/23 05:41:09;;;;;;;65.97;25.10;;;7.10;99.90;;;;;;4935231;28;20024;-71
2023/02/23 05:43:35;;;;;;;68.45;25.23;;;7.10;99.90;;;;;;4953185;28;20087;-68
2023/02/23 05:46:05;;;;;;;58.80;23.47;;;7.10;99.90;;;;;;4955372;28;20395;-69
2023/02/23 05:48:31;;;;;;;61.17;23.58;;;7.10;99.90;;;;;;4953841;28;20812;-69
2023/02/23 05:51:04;;;;;;;65.03;24.57;;;7.10;99.90;;;;;;4953790;28;20021;-68
2023/02/23 05:53:29;;;;;;;61.90;22.55;;;7.00;99.90;;;;;;4918904;28;20614;-73
2023/02/23 05:55:55;;;;;;;63.27;24.27;;;7.00;99.90;;;;;;4950049;28;20635;-70
2023/02/23 05:58:21;;;;;;;62.20;22.10;;;7.00;99.90;;;;;;4950959;28;20765;-74
2023/02/23 06:00:46;;;;;;;62.50;24.20;;;7.00;99.90;;;;;;4954444;28;20047;-71
2023/02/23 06:03:13;;;;;;;65.10;24.27;;;7.00;99.90;;;;;;4952133;28;20904;-73
2023/02/23 06:05:39;;;;;;;67.40;23.35;;;7.00;99.90;;;;;;4950405;28;20029;-73
2023/02/23 06:08:04;;;;;;;68.87;26.27;;;7.10;99.90;;;;;;4951167;28;20021;-69
2023/02/23 06:10:30;;;;;;;63.47;23.57;;;7.10;99.90;;;;;;4949736;28;20048;-73
2023/02/23 06:12:55;;;;;;;69.73;24.80;;;7.00;99.90;;;;;;4955221;28;20160;-68
2023/02/23 06:15:21;;;;;;;70.03;25.23;;;7.00;99.90;;;;;;4953352;28;20323;-74
2023/02/23 06:17:47;;;;;;;62.07;24.63;;;7.10;99.90;;;;;;4931271;28;20020;-70
2023/02/23 06:20:13;;;;;;;73.87;24.53;;;7.10;99.90;;;;;;4952369;28;20025;-73
2023/02/23 06:22:39;;;;;;;65.50;24.05;;;7.00;99.90;;;;;;4936165;28;20301;-73
2023/02/23 06:25:11;;;;;;;62.67;23.93;;;7.10;99.90;;;;;;4951844;28;20127;-73
2023/02/23 06:27:41;;;;;;;63.83;22.70;;;7.10;99.90;;;;;;4951583;28;20037;-73
2023/02/23 06:30:07;;;;;;;64.50;23.23;;;7.10;99.90;;;;;;4951378;28;20050;-74
2023/02/23 06:32:33;;;;;;;64.45;24.08;;;7.10;99.90;;;;;;4936248;28;20073;-72
2023/02/23 06:34:59;;;;;;;62.53;23.00;;;7.10;99.90;;;;;;4951780;28;20033;-70
2023/02/23 06:37:25;;;;;;;70.97;24.40;;;7.10;99.90;;;;;;4952865;28;20025;-73
2023/02/23 06:39:50;;;;;;;61.77;22.27;;;7.10;99.90;;;;;;4953119;28;20067;-68
2023/02/23 06:42:16;;;;;;;56.40;23.23;;;7.10;99.90;;;;;;4952179;28;20044;-70
2023/02/23 06:44:42;;;;;;;58.87;22.77;;;7.20;99.90;;;;;;4952745;28;20036;-72
2023/02/23 06:47:08;;;;;;;58.73;21.13;;;7.20;99.90;;;;;;4935085;28;20344;-73
2023/02/23 06:49:33;;;;;;;65.43;22.57;;;7.10;99.90;;;;;;4934047;28;20031;-73
2023/02/23 06:51:59;;;;;;;65.73;23.47;;;7.10;99.90;;;;;;4951828;28;20122;-69
2023/02/23 06:54:25;;;;;;;70.93;23.93;;;7.20;99.90;;;;;;4949078;28;20108;-68
2023/02/23 06:56:52;;;;;;;72.70;24.60;;;7.20;99.90;;;;;;4946936;28;20108;-68
2023/02/23 06:59:17;;;;;;;75.55;25.42;;;7.20;99.90;;;;;;4949215;28;20054;-68
2023/02/23 07:01:43;;;;;;;76.67;22.63;;;7.20;99.90;;;;;;4951139;28;20439;-73
2023/02/23 07:04:10;;;;;;;70.33;22.50;;;7.20;99.90;;;;;;4949891;28;21984;-73
2023/02/23 07:06:36;;;;;;;84.95;25.73;;;7.30;99.90;;;;;;4952554;28;20043;-69
2023/02/23 07:09:04;;;;;;;83.38;23.35;;;7.30;99.90;;;;;;4933301;28;20032;-68
2023/02/23 07:11:30;;;;;;;79.22;22.75;;;7.30;99.90;;;;;;4955222;28;21253;-68
2023/02/23 07:13:58;;;;;;;87.07;23.53;;;7.30;99.90;;;;;;4956008;28;20163;-72
2023/02/23 07:16:26;;;;;;;91.93;25.73;;;7.30;99.90;;;;;;4954175;28;20663;-73
2023/02/23 07:18:53;;;;;;;90.60;23.17;;;7.40;99.90;;;;;;4937305;28;20158;-69
2023/02/23 07:21:19;;;;;;;86.72;23.42;;;7.40;99.90;;;;;;4935875;28;20025;-73
2023/02/23 07:23:46;;;;;;;102.20;25.37;;;7.40;99.90;;;;;;4955422;28;20036;-68
2023/02/23 07:26:14;;;;;;;88.32;25.25;;;7.40;99.90;;;;;;4953500;28;20870;-73
2023/02/23 07:28:40;;;;;;;93.07;23.15;;;7.40;99.90;;;;;;4956335;28;20021;-69
2023/02/23 07:31:06;;;;;;;87.55;23.35;;;7.40;99.90;;;;;;5039850;28;20051;-73
2023/02/23 07:33:32;;;;;;;86.07;23.73;;;7.40;99.90;;;;;;5043609;28;20036;-73
2023/02/23 07:35:59;;;;;;;;;;;7.40;99.90;;;;;;5047606;28;20045;-74
2023/02/23 07:38:24;;;;;;;82.30;21.63;;;7.40;99.90;;;;;;5046286;28;19931;-71
2023/02/23 07:40:50;;;;;;;89.57;22.97;;;7.40;99.90;;;;;;5045660;28;20387;-68
2023/02/23 07:43:16;;;;;;;83.80;21.48;;;7.40;99.90;;;;;;5050894;28;20033;-72
2023/02/23 07:45:42;;;;;;;73.40;21.43;;;7.50;99.90;;;;;;5053570;28;20060;-72
2023/02/23 07:48:08;;;;;;;74.10;20.67;;;7.50;99.90;;;;;;5044410;28;20301;-74
2023/02/23 07:50:34;;;;;;;80.28;20.10;;;7.50;99.90;;;;;;5052038;28;20044;-73
2023/02/23 07:53:00;;;;;;;79.63;19.17;;;7.50;99.90;;;;;;5032431;28;20055;-69
2023/02/23 07:55:26;;;;;;;71.05;20.00;;;7.50;99.90;;;;;;5047513;28;20118;-74
2023/02/23 07:57:52;;;;;;;75.27;20.27;;;7.60;99.90;;;;;;5029496;28;20067;-72
2023/02/23 08:00:18;;;;;;;68.77;18.63;;;7.50;99.90;;;;;;4946547;28;20672;-72
2023/02/23 08:02:44;;;;;;;64.33;17.47;;;7.50;99.90;;;;;;4948430;28;20265;-69
2023/02/23 08:05:10;;;;;;;75.53;18.73;;;7.60;99.90;;;;;;4947214;28;20615;-73
2023/02/23 08:07:36;;;;;;;56.17;17.33;;;7.60;99.90;;;;;;4948812;28;20037;-68
2023/02/23 08:10:02;;;;;;;60.37;17.07;;;7.60;99.90;;;;;;4948559;28;20032;-68
2023/02/23 08:12:28;;;;;;;56.30;15.10;;;7.60;99.90;;;;;;4948472;28;20083;-73
2023/02/23 08:14:54;;;;;;;54.40;17.03;;;7.60;99.90;;;;;;4913608;28;20044;-73
2023/02/23 08:17:19;;;;;;;56.50;15.43;;;7.60;99.90;;;;;;4946654;28;20029;-68
2023/02/23 08:19:45;;;;;;;52.37;16.10;;;7.60;99.90;;;;;;4947575;28;20056;-73
2023/02/23 08:22:11;;;;;;;59.23;14.40;;;7.70;99.90;;;;;;4944678;28;20151;-73
2023/02/23 08:24:36;;;;;;;64.27;15.73;;;7.70;99.90;;;;;;4945983;28;20113;-75
2023/02/23 08:27:03;;;;;;;47.13;13.90;;;7.70;99.90;;;;;;4961936;28;20506;-68
2023/02/23 08:29:28;;;;;;;55.95;15.55;;;7.70;99.90;;;;;;4932478;28;20407;-70
2023/02/23 08:31:55;;;;;;;44.67;13.67;;;7.70;99.90;;;;;;4947590;28;20033;-73
2023/02/23 08:34:21;;;;;;;48.65;13.80;;;7.70;99.90;;;;;;4945547;28;20376;-73
2023/02/23 08:36:47;;;;;;;48.63;14.93;;;7.70;99.90;;;;;;4947929;28;20072;-73
2023/02/23 08:39:13;;;;;;;37.58;12.88;;;7.70;99.90;;;;;;4948469;28;20053;-67
2023/02/23 08:41:40;;;;;;;38.70;13.73;;;7.70;99.90;;;;;;4947658;28;20231;-67
2023/02/23 08:44:06;;;;;;;50.22;14.90;;;7.70;99.90;;;;;;4947555;28;21045;-67
2023/02/23 08:46:32;;;;;;;49.80;14.17;;;7.70;99.90;;;;;;4947361;28;20120;-69
2023/02/23 08:48:57;;;;;;;52.22;14.98;;;7.80;99.90;;;;;;4928279;28;20449;-68
2023/02/23 08:51:24;;;;;;;47.57;12.77;;;7.70;99.90;;;;;;4949782;28;20124;-69
2023/02/23 08:53:49;;;;;;;54.17;15.95;;;7.80;99.90;;;;;;4930410;28;21164;-67
2023/02/23 08:56:15;;;;;;;52.53;15.30;;;7.80;99.90;;;;;;4930261;28;20165;-68
2023/02/23 08:58:44;;;;;;;49.90;15.27;;;7.80;99.90;;;;;;4946786;28;20033;-67
2023/02/23 09:01:18;;;;;;;52.40;14.95;;;7.80;99.90;;;;;;4947613;28;20075;-68
2023/02/23 09:03:44;;;;;;;46.35;14.63;;;7.90;99.90;;;;;;4950944;28;20024;-68
2023/02/23 09:06:14;;;;;;;48.08;14.00;;;7.90;99.90;;;;;;4947431;28;20123;-68
2023/02/23 09:08:40;;;;;;;53.70;16.17;;;7.90;99.90;;;;;;4945949;28;20029;-73
2023/02/23 09:11:06;;;;;;;49.15;14.05;;;7.90;99.90;;;;;;4947512;28;20025;-73
2023/02/23 09:13:33;;;;;;;48.03;16.30;;;7.90;99.90;;;;;;4948879;28;20036;-68
2023/02/23 09:15:58;;;;;;;52.25;15.00;;;8.00;99.90;;;;;;4948487;28;20067;-68
2023/02/23 09:18:26;;;;;;;53.33;15.30;;;7.90;99.90;;;;;;4930604;28;20029;-68
2023/02/23 09:20:52;;;;;;;46.58;14.65;;;8.00;99.90;;;;;;4949977;28;20020;-68
2023/02/23 09:23:18;;;;;;;40.23;14.63;;;8.00;99.90;;;;;;4952038;28;23680;-68
2023/02/23 09:25:44;;;;;;;50.87;13.07;;;8.00;99.90;;;;;;4949812;28;23936;-68
2023/02/23 09:28:12;;;;;;;48.08;14.95;;;8.00;99.90;;;;;;4933206;28;20032;-68
2023/02/23 09:30:40;;;;;;;42.70;14.50;;;8.00;99.90;;;;;;4950582;28;20112;-67
2023/02/23 09:33:06;;;;;;;48.28;14.65;;;8.00;99.90;;;;;;4950049;28;20017;-67
2023/02/23 09:35:33;;;;;;;43.70;15.02;;;8.00;99.90;;;;;;4950317;28;20154;-68
2023/02/23 09:37:59;;;;;;;44.47;13.90;;;8.00;99.90;;;;;;4947210;28;20037;-73
2023/02/23 09:40:44;;;;;;;41.90;14.73;;;8.10;99.90;;;;;;4945379;28;20135;-67
2023/02/23 09:43:18;;;;;;;35.67;13.32;;;8.10;99.90;;;;;;4947021;28;20022;-67
2023/02/23 09:46:01;;;;;;;42.05;13.77;;;8.30;99.90;;;;;;4948289;28;23563;-67
2023/02/23 09:48:28;;;;;;;31.95;11.93;;;8.30;99.90;;;;;;4947987;28;20032;-69
2023/02/23 09:50:54;;;;;;;;;;;8.40;99.90;;;;;;4949901;28;20025;-72
2023/02/23 09:53:25;;;;;;;26.17;11.02;;;8.30;99.90;;;;;;4945284;28;21866;-68
2023/02/23 09:55:53;;;;;;;32.40;11.13;;;8.20;99.90;;;;;;4948126;28;20087;-72
2023/02/23 09:58:28;;;;;;;29.05;11.10;;;8.20;99.90;;;;;;4947051;28;20108;-68
2023/02/23 10:01:15;;;;;;;27.17;10.77;;;8.20;99.90;;;;;;4945387;28;20703;-72
2023/02/23 10:03:51;;;;;;;33.05;11.57;;;8.30;99.90;;;;;;4947035;28;20496;-68
2023/02/23 10:06:18;;;;;;;31.90;11.23;;;8.20;99.90;;;;;;4944260;28;20027;-69
2023/02/23 10:09:05;;;;;;;35.42;11.70;;;8.30;99.90;;;;;;4942065;28;20904;-69
2023/02/23 10:11:57;;;;;;;30.35;11.13;;;8.30;99.90;;;;;;4943882;28;20020;-68
2023/02/23 10:14:41;;;;;;;30.02;11.48;;;8.20;99.90;;;;;;4946814;28;20048;-69
2023/02/23 10:17:18;;;;;;;30.90;11.20;;;8.20;99.90;;;;;;4944140;28;20028;-69
2023/02/23 10:19:47;;;;;;;24.23;9.40;;;8.20;99.90;;;;;;4925871;28;21096;-68
2023/02/23 10:22:14;;;;;;;26.48;9.52;;;8.10;99.90;;;;;;4943287;28;20029;-74
2023/02/23 10:24:53;;;;;;;;;;;8.10;99.90;;;;;;4945486;28;20435;-68
2023/02/23 10:27:20;;;;;;;24.98;9.70;;;8.00;99.90;;;;;;4927267;28;20771;-73
2023/02/23 10:29:59;;;;;;;31.67;10.65;;;8.00;99.90;;;;;;4947544;28;20109;-73
2023/02/23 10:32:27;;;;;;;31.35;10.10;;;8.00;99.90;;;;;;4928181;28;20029;-73
2023/02/23 10:34:55;;;;;;;31.17;10.88;;;7.90;99.90;;;;;;4927717;28;20025;-71
2023/02/23 10:37:22;;;;;;;32.80;10.90;;;7.90;99.90;;;;;;4946256;28;20119;-68
2023/02/23 10:39:51;;;;;;;42.10;12.23;;;8.00;99.90;;;;;;4929182;28;20037;-67
2023/02/23 10:42:22;;;;;;;40.10;12.77;;;7.90;99.90;;;;;;4949320;28;20917;-69
2023/02/23 10:44:49;;;;;;;34.53;10.93;;;7.90;99.90;;;;;;4949415;28;20087;-73
2023/02/23 10:47:27;;;;;;;36.78;12.55;;;7.90;99.90;;;;;;4929933;28;20031;-68
2023/02/23 10:49:54;;;;;;;42.90;13.63;;;8.00;99.90;;;;;;4950166;28;20915;-69
2023/02/23 10:52:28;;;;;;;39.38;13.82;;;8.00;99.90;;;;;;4949765;28;20029;-68
2023/02/23 10:54:54;;;;;;;44.42;15.05;;;8.10;99.90;;;;;;4931563;28;20104;-68
2023/02/23 10:57:28;;;;;;;50.50;14.97;;;8.20;99.90;;;;;;4931536;28;20886;-69
2023/02/23 11:00:15;;;;;;;52.25;16.48;;;8.10;99.90;;;;;;4948455;28;20029;-73
2023/02/23 11:02:43;;;;;;;44.95;14.98;;;8.20;99.90;;;;;;4948091;28;23930;-68
2023/02/23 11:05:30;;;;;;;46.42;14.27;;;8.20;99.90;;;;;;4931453;28;20032;-73
2023/02/23 11:08:21;;;;;;;48.92;14.93;;;8.30;99.90;;;;;;4950592;28;20512;-69
2023/02/23 11:11:27;;;;;;;41.67;14.10;;;8.30;99.90;;;;;;4949648;28;20025;-73
2023/02/23 11:13:55;;;;;;;34.80;11.07;;;8.30;99.90;;;;;;4948215;28;20443;-73
2023/02/23 11:16:21;;;;;;;37.25;13.10;;;8.40;99.90;;;;;;4950280;28;21062;-69
2023/02/23 11:18:53;;;;;;;25.80;10.40;;;8.50;99.90;;;;;;4931668;28;20028;-73
2023/02/23 11:21:28;;;;;;;26.98;9.75;;;8.40;99.90;;;;;;4949260;28;20025;-70
2023/02/23 11:23:57;;;;;;;34.45;10.45;;;8.50;99.90;;;;;;4955439;28;20025;-68
2023/02/23 11:26:34;;;;;;;37.63;10.88;;;8.50;99.90;;;;;;4942322;28;20052;-68
2023/02/23 11:29:10;;;;;;;31.45;11.98;;;8.50;99.90;;;;;;4944563;28;20109;-73
2023/02/23 11:31:36;;;;;;;31.30;11.40;;;8.50;99.90;;;;;;4942757;28;20049;-70
2023/02/23 11:34:04;;;;;;;48.43;12.57;;;8.60;99.90;;;;;;4950240;28;20052;-73
2023/02/23 11:36:33;;;;;;;35.38;12.25;;;8.60;99.90;;;;;;4949305;28;23501;-71
2023/02/23 11:39:14;;;;;;;33.53;12.32;;;8.50;99.90;;;;;;4931334;28;20021;-69
2023/02/23 11:41:41;;;;;;;26.52;10.15;;;8.50;99.90;;;;;;4952854;28;20095;-74
2023/02/23 11:44:17;;;;;;;44.63;12.65;;;8.40;99.90;;;;;;4949306;28;20423;-69
2023/02/23 11:46:44;;;;;;;40.40;12.50;;;8.40;99.90;;;;;;4946399;28;20037;-74
2023/02/23 11:49:19;;;;;;;47.13;13.23;;;8.30;99.90;;;;;;4948009;28;20024;-68
2023/02/23 11:51:50;;;;;;;35.17;13.05;;;8.30;99.90;;;;;;4946392;28;20025;-68
2023/02/23 11:54:21;;;;;;;35.38;12.20;;;8.40;99.90;;;;;;4964892;28;20017;-74
2023/02/23 11:56:53;;;;;;;41.78;13.95;;;8.30;99.90;;;;;;4931356;28;20754;-70
2023/02/23 11:59:26;;;;;;;38.03;13.40;;;8.30;99.90;;;;;;4947415;28;20134;-72
2023/02/23 12:01:55;;;;;;;42.33;13.68;;;8.30;99.90;;;;;;4947457;28;20025;-69
2023/02/23 12:04:39;;;;;;;33.47;11.65;;;8.30;99.90;;;;;;4949563;28;20207;-71
2023/02/23 12:07:42;;;;;;;36.45;13.00;;;8.40;99.90;;;;;;4930050;28;20040;-68
2023/02/23 12:10:14;;;;;;;36.75;12.60;;;8.50;99.90;;;;;;4949490;28;20384;-74
2023/02/23 12:13:08;;;;;;;36.83;12.13;;;8.50;99.90;;;;;;4945759;28;20173;-69
2023/02/23 12:15:36;;;;;;;47.75;13.77;;;8.60;99.90;;;;;;4947172;28;20117;-69
2023/02/23 12:18:13;;;;;;;25.63;9.77;;;8.60;99.90;;;;;;4946254;28;20564;-68
2023/02/23 12:20:40;;;;;;;;;;;8.60;99.90;;;;;;4949030;28;20850;-68
2023/02/23 12:23:11;;;;;;;28.67;9.90;;;8.60;99.90;;;;;;4929055;28;19912;-69
2023/02/23 12:25:55;;;;;;;30.17;9.35;;;8.60;99.90;;;;;;4947046;28;24237;-70
2023/02/23 12:28:49;;;;;;;32.92;10.93;;;8.50;99.90;;;;;;4950823;28;20029;-68
2023/02/23 12:31:30;;;;;;;39.20;12.93;;;8.50;99.90;;;;;;4952132;28;20021;-72
2023/02/23 12:34:04;;;;;;;25.95;9.75;;;8.50;99.90;;;;;;4950750;28;20051;-67
2023/02/23 12:36:37;;;;;;;30.60;10.50;;;8.60;99.90;;;;;;4947745;28;20706;-73
2023/02/23 12:39:35;;;;;;;36.47;11.80;;;8.60;99.90;;;;;;4944918;28;20040;-68
2023/02/23 12:42:32;;;;;;;36.22;12.00;;;8.60;99.90;;;;;;4928635;28;20063;-68
2023/02/23 12:45:02;;;;;;;45.22;12.63;;;8.50;99.90;;;;;;4944530;28;20025;-73
2023/02/23 12:47:50;;;;;;;36.88;12.63;;;8.40;99.90;;;;;;4945957;28;20034;-68
2023/02/23 12:50:30;;;;;;;33.13;12.15;;;8.30;99.90;;;;;;4948195;28;20174;-68
2023/02/23 12:53:24;;;;;;;46.33;13.68;;;8.30;99.90;;;;;;4945045;28;20043;-70
2023/02/23 12:56:10;;;;;;;40.63;13.80;;;8.30;99.90;;;;;;4947600;28;20032;-67
2023/02/23 12:58:36;;;;;;;45.75;13.13;;;8.40;99.90;;;;;;4944974;28;21003;-69
2023/02/23 13:01:28;;;;;;;33.13;10.03;;;8.40;99.90;;;;;;4928373;28;21444;-68
2023/02/23 13:04:05;;;;;;;49.13;14.93;;;8.40;99.90;;;;;;4946535;28;20711;-69
2023/02/23 13:06:54;;;;;;;30.52;10.88;;;8.40;99.90;;;;;;4947577;28;20024;-69
2023/02/23 13:09:42;;;;;;;26.90;9.60;;;8.50;99.90;;;;;;4945981;28;20131;-69
2023/02/23 13:12:35;;;;;;;40.15;11.73;;;8.50;99.90;;;;;;4947159;28;20159;-69
2023/02/23 13:15:26;;;;;;;38.83;11.05;;;8.40;99.90;;;;;;4916308;28;20040;-70
2023/02/23 13:18:20;;;;;;;26.85;9.07;;;8.40;99.90;;;;;;4926810;28;20025;-74
2023/02/23 13:21:18;;;;;;;36.60;10.23;;;8.50;99.90;;;;;;4948198;28;20402;-71
2023/02/23 13:23:54;;;;;;;28.55;8.93;;;8.50;99.90;;;;;;4947185;28;20121;-69
2023/02/23 13:26:29;;;;;;;28.83;9.75;;;8.60;99.90;;;;;;4945741;28;20057;-73
2023/02/23 13:28:58;;;;;;;27.45;7.57;;;8.60;99.90;;;;;;4929021;28;20025;-74
2023/02/23 13:31:36;;;;;;;26.45;6.65;;;8.50;99.90;;;;;;4945870;28;20025;-69
2023/02/23 13:34:04;;;;;;;32.90;10.07;;;8.50;99.90;;;;;;4947941;28;20021;-74
2023/02/23 13:36:33;;;;;;;24.27;8.95;;;8.50;99.90;;;;;;4946143;28;20113;-69
2023/02/23 13:39:32;;;;;;;21.50;8.30;;;8.50;99.90;;;;;;4944799;28;20106;-73
2023/02/23 13:42:18;;;;;;;24.95;8.30;;;8.50;99.90;;;;;;4945499;28;20747;-69
2023/02/23 13:44:54;;;;;;;27.70;8.93;;;8.50;99.90;;;;;;4947478;28;20107;-70
2023/02/23 13:47:44;;;;;;;29.75;8.77;;;8.50;99.90;;;;;;4945446;28;20025;-69
2023/02/23 13:50:29;;;;;;;24.80;7.88;;;8.50;99.90;;;;;;4950114;28;21827;-69
2023/02/23 13:52:59;;;;;;;26.15;8.75;;;8.60;99.90;;;;;;4946511;28;20647;-69
2023/02/23 13:55:24;;;;;;;30.38;10.50;;;8.70;99.90;;;;;;4923430;28;20054;-68
2023/02/23 13:57:56;;;;;;;20.20;7.60;;;8.60;99.90;;;;;;4924804;28;20031;-70
2023/02/23 14:00:22;;;;;;;29.88;10.02;;;8.60;99.90;;;;;;4940567;28;20035;-69
2023/02/23 14:02:49;;;;;;;37.00;12.52;;;8.60;99.90;;;;;;4940891;28;20642;-73
2023/02/23 14:05:24;;;;;;;31.85;10.55;;;8.60;99.90;;;;;;4944540;28;20710;-69
2023/02/23 14:07:56;;;;;;;26.85;8.90;;;8.60;99.90;;;;;;4947589;28;20025;-68
2023/02/23 14:10:28;;;;;;;32.85;11.45;;;8.70;99.90;;;;;;4945240;28;20274;-73
2023/02/23 14:13:12;;;;;;;34.25;10.77;;;8.70;99.90;;;;;;5029287;28;20026;-69
2023/02/23 14:15:38;;;;;;;18.23;7.20;;;8.70;99.90;;;;;;5019277;28;20040;-68
2023/02/23 14:18:28;;;;;;;13.60;2.43;;;8.50;99.90;;;;;;4949704;28;21053;-80